KTPL/TPL METAR and TAF weather

Enter ICAO airport designator
Station Type Date Time Source
KTPL METAR 2021/04/13 06:51 UTC NOAA

KTPL 130651Z AUTO 00000KT 10SM FEW034 OVC049 22/19 A2991 RMK AO2 SLP116 T02220194


Station Type Date Time Source
KTPL Decoded METAR 2021/04/13 06:51 UTC NOAA

Temple, Draughon-Miller Central Texas Regional Airport, TX, United States (KTPL) 31-09N 097-24W
Apr 13, 2021 - 02:51 AM EDT / 2021.04.13 0651 UTC
Wind: Calm:0
Visibility: 10 mile(s):0
Sky conditions: overcast
Temperature: 72.0 F (22.2 C)
Dew Point: 66.9 F (19.4 C)
Relative Humidity: 84%
Pressure (altimeter): 29.91 in. Hg (1012 hPa)
ob: KTPL 130651Z AUTO 00000KT 10SM FEW034 OVC049 22/19 A2991 RMK AO2 SLP116 T02220194
cycle: 7

Station Type Date Time Source
KTPL TAF UTC NOAA

Error!

Example: see airport list